sensor_id;sensor_type;location;lat;lon;timestamp;temperature;humidity
2603;DHT22;1311;47.966;7.958;2023-01-04T00:01:53;3.50;99.90
2603;DHT22;1311;47.966;7.958;2023-01-04T00:04:19;3.50;99.90
2603;DHT22;1311;47.966;7.958;2023-01-04T00:06:46;3.50;99.90
2603;DHT22;1311;47.966;7.958;2023-01-04T00:09:13;3.40;99.90
2603;DHT22;1311;47.966;7.958;2023-01-04T00:11:40;3.40;99.90
2603;DHT22;1311;47.966;7.958;2023-01-04T00:14:10;3.30;99.90
2603;DHT22;1311;47.966;7.958;2023-01-04T00:16:37;3.30;99.90
2603;DHT22;1311;47.966;7.958;2023-01-04T00:19:05;3.30;99.90
2603;DHT22;1311;47.966;7.958;2023-01-04T00:21:31;3.40;99.90
2603;DHT22;1311;47.966;7.958;2023-01-04T00:23:59;3.30;99.90
2603;DHT22;1311;47.966;7.958;2023-01-04T00:26:28;3.30;99.90
2603;DHT22;1311;47.966;7.958;2023-01-04T00:28:57;3.30;99.90
2603;DHT22;1311;47.966;7.958;2023-01-04T00:31:24;3.20;99.90
2603;DHT22;1311;47.966;7.958;2023-01-04T00:33:52;3.40;99.90
2603;DHT22;1311;47.966;7.958;2023-01-04T00:36:21;3.40;99.90
2603;DHT22;1311;47.966;7.958;2023-01-04T00:38:48;3.40;99.90
2603;DHT22;1311;47.966;7.958;2023-01-04T00:41:31;3.40;99.90
2603;DHT22;1311;47.966;7.958;2023-01-04T00:43:58;3.40;99.90
2603;DHT22;1311;47.966;7.958;2023-01-04T00:46:27;3.40;99.90
2603;DHT22;1311;47.966;7.958;2023-01-04T00:48:54;3.50;99.90
2603;DHT22;1311;47.966;7.958;2023-01-04T00:51:22;3.50;99.90
2603;DHT22;1311;47.966;7.958;2023-01-04T00:53:49;3.40;99.90
2603;DHT22;1311;47.966;7.958;2023-01-04T00:56:16;3.50;99.90
2603;DHT22;1311;47.966;7.958;2023-01-04T00:58:42;3.50;99.90
2603;DHT22;1311;47.966;7.958;2023-01-04T01:01:09;3.40;99.90
2603;DHT22;1311;47.966;7.958;2023-01-04T01:03:36;3.50;99.90
2603;DHT22;1311;47.966;7.958;2023-01-04T01:06:05;3.50;99.90
2603;DHT22;1311;47.966;7.958;2023-01-04T01:08:34;3.40;99.90
2603;DHT22;1311;47.966;7.958;2023-01-04T01:11:02;3.40;99.90
2603;DHT22;1311;47.966;7.958;2023-01-04T01:13:29;3.40;99.90
2603;DHT22;1311;47.966;7.958;2023-01-04T01:16:01;3.40;99.90
2603;DHT22;1311;47.966;7.958;2023-01-04T01:18:28;3.30;99.90
2603;DHT22;1311;47.966;7.958;2023-01-04T01:20:55;3.30;99.90
2603;DHT22;1311;47.966;7.958;2023-01-04T01:23:22;3.30;99.90
2603;DHT22;1311;47.966;7.958;2023-01-04T01:25:50;3.20;99.90
2603;DHT22;1311;47.966;7.958;2023-01-04T01:28:17;3.20;99.90
2603;DHT22;1311;47.966;7.958;2023-01-04T01:30:43;3.20;99.90
2603;DHT22;1311;47.966;7.958;2023-01-04T01:33:10;3.20;99.90
2603;DHT22;1311;47.966;7.958;2023-01-04T01:35:37;3.20;99.90
2603;DHT22;1311;47.966;7.958;2023-01-04T01:38:04;3.30;99.90
2603;DHT22;1311;47.966;7.958;2023-01-04T01:40:30;3.30;99.90
2603;DHT22;1311;47.966;7.958;2023-01-04T01:42:59;3.30;99.90
2603;DHT22;1311;47.966;7.958;2023-01-04T01:45:31;3.20;99.90
2603;DHT22;1311;47.966;7.958;2023-01-04T01:48:02;3.30;99.90
2603;DHT22;1311;47.966;7.958;2023-01-04T01:50:33;3.30;99.90
2603;DHT22;1311;47.966;7.958;2023-01-04T01:53:01;3.20;99.90
2603;DHT22;1311;47.966;7.958;2023-01-04T01:55:29;3.20;99.90
2603;DHT22;1311;47.966;7.958;2023-01-04T01:58:00;3.10;99.90
2603;DHT22;1311;47.966;7.958;2023-01-04T02:00:28;3.10;99.90
2603;DHT22;1311;47.966;7.958;2023-01-04T02:03:06;3.00;99.90
2603;DHT22;1311;47.966;7.958;2023-01-04T02:05:36;3.00;99.90
2603;DHT22;1311;47.966;7.958;2023-01-04T02:08:03;2.80;99.90
2603;DHT22;1311;47.966;7.958;2023-01-04T02:10:30;2.90;99.90
2603;DHT22;1311;47.966;7.958;2023-01-04T02:13:01;2.90;99.90
2603;DHT22;1311;47.966;7.958;2023-01-04T02:15:37;2.80;99.90
2603;DHT22;1311;47.966;7.958;2023-01-04T02:18:09;2.80;99.90
2603;DHT22;1311;47.966;7.958;2023-01-04T02:20:46;2.70;99.90
2603;DHT22;1311;47.966;7.958;2023-01-04T02:23:42;2.60;99.90
2603;DHT22;1311;47.966;7.958;2023-01-04T02:32:51;2.60;99.90
2603;DHT22;1311;47.966;7.958;2023-01-04T02:35:24;2.60;99.90
2603;DHT22;1311;47.966;7.958;2023-01-04T02:38:00;2.60;99.90
2603;DHT22;1311;47.966;7.958;2023-01-04T02:40:36;2.70;99.90
2603;DHT22;1311;47.966;7.958;2023-01-04T02:43:11;2.60;99.90
2603;DHT22;1311;47.966;7.958;2023-01-04T02:46:01;2.60;99.90
2603;DHT22;1311;47.966;7.958;2023-01-04T02:48:35;2.50;99.90
2603;DHT22;1311;47.966;7.958;2023-01-04T02:51:28;2.50;99.90
2603;DHT22;1311;47.966;7.958;2023-01-04T02:53:57;2.40;99.90
2603;DHT22;1311;47.966;7.958;2023-01-04T02:56:33;2.40;99.90
2603;DHT22;1311;47.966;7.958;2023-01-04T02:59:22;2.50;99.90
2603;DHT22;1311;47.966;7.958;2023-01-04T03:01:58;2.40;99.90
2603;DHT22;1311;47.966;7.958;2023-01-04T03:04:54;2.50;99.90
2603;DHT22;1311;47.966;7.958;2023-01-04T03:07:48;2.50;99.90
2603;DHT22;1311;47.966;7.958;2023-01-04T03:10:21;2.40;99.90
2603;DHT22;1311;47.966;7.958;2023-01-04T03:12:56;2.40;99.90
2603;DHT22;1311;47.966;7.958;2023-01-04T03:15:26;2.30;99.90
2603;DHT22;1311;47.966;7.958;2023-01-04T03:17:56;2.40;99.90
2603;DHT22;1311;47.966;7.958;2023-01-04T03:20:29;2.50;99.90
2603;DHT22;1311;47.966;7.958;2023-01-04T03:22:58;2.60;99.90
2603;DHT22;1311;47.966;7.958;2023-01-04T03:25:49;2.60;99.90
2603;DHT22;1311;47.966;7.958;2023-01-04T03:28:37;2.60;99.90
2603;DHT22;1311;47.966;7.958;2023-01-04T03:31:26;2.60;99.90
2603;DHT22;1311;47.966;7.958;2023-01-04T03:34:12;2.70;99.90
2603;DHT22;1311;47.966;7.958;2023-01-04T03:37:04;2.80;99.90
2603;DHT22;1311;47.966;7.958;2023-01-04T03:40:04;2.90;99.90
2603;DHT22;1311;47.966;7.958;2023-01-04T03:42:56;2.90;99.90
2603;DHT22;1311;47.966;7.958;2023-01-04T03:45:47;2.90;99.90
2603;DHT22;1311;47.966;7.958;2023-01-04T03:48:36;3.00;99.90
2603;DHT22;1311;47.966;7.958;2023-01-04T03:51:09;3.00;99.90
2603;DHT22;1311;47.966;7.958;2023-01-04T03:53:45;3.10;99.90
2603;DHT22;1311;47.966;7.958;2023-01-04T03:56:14;3.10;99.90
2603;DHT22;1311;47.966;7.958;2023-01-04T03:58:42;3.10;99.90
2603;DHT22;1311;47.966;7.958;2023-01-04T04:01:09;3.20;99.90
2603;DHT22;1311;47.966;7.958;2023-01-04T04:03:36;3.40;99.90
2603;DHT22;1311;47.966;7.958;2023-01-04T04:06:20;3.40;99.90
2603;DHT22;1311;47.966;7.958;2023-01-04T04:09:06;3.60;99.90
2603;DHT22;1311;47.966;7.958;2023-01-04T04:11:32;3.60;99.90
2603;DHT22;1311;47.966;7.958;2023-01-04T04:13:59;3.60;99.90
2603;DHT22;1311;47.966;7.958;2023-01-04T04:16:26;3.60;99.90
2603;DHT22;1311;47.966;7.958;2023-01-04T04:18:53;3.60;99.90
2603;DHT22;1311;47.966;7.958;2023-01-04T04:21:20;3.60;99.90
2603;DHT22;1311;47.966;7.958;2023-01-04T04:23:47;3.60;99.90
2603;DHT22;1311;47.966;7.958;2023-01-04T04:26:15;3.70;99.90
2603;DHT22;1311;47.966;7.958;2023-01-04T04:28:42;3.70;99.90
2603;DHT22;1311;47.966;7.958;2023-01-04T04:31:09;3.70;99.90
2603;DHT22;1311;47.966;7.958;2023-01-04T04:33:36;3.80;99.90
2603;DHT22;1311;47.966;7.958;2023-01-04T04:36:04;3.80;99.90
2603;DHT22;1311;47.966;7.958;2023-01-04T04:38:31;3.80;99.90
2603;DHT22;1311;47.966;7.958;2023-01-04T04:40:58;3.80;99.90
2603;DHT22;1311;47.966;7.958;2023-01-04T04:43:43;3.80;99.90
2603;DHT22;1311;47.966;7.958;2023-01-04T04:46:10;3.80;99.90
2603;DHT22;1311;47.966;7.958;2023-01-04T04:48:37;3.80;99.90
2603;DHT22;1311;47.966;7.958;2023-01-04T04:51:04;3.70;99.90
2603;DHT22;1311;47.966;7.958;2023-01-04T04:53:31;3.80;99.90
2603;DHT22;1311;47.966;7.958;2023-01-04T04:55:58;3.80;99.90
2603;DHT22;1311;47.966;7.958;2023-01-04T04:58:24;3.80;99.90
2603;DHT22;1311;47.966;7.958;2023-01-04T05:00:52;3.90;99.90
2603;DHT22;1311;47.966;7.958;2023-01-04T05:03:19;3.90;99.90
2603;DHT22;1311;47.966;7.958;2023-01-04T05:05:46;3.90;99.90
2603;DHT22;1311;47.966;7.958;2023-01-04T05:08:13;4.00;99.90
2603;DHT22;1311;47.966;7.958;2023-01-04T05:10:39;4.10;99.90
2603;DHT22;1311;47.966;7.958;2023-01-04T05:13:08;4.20;99.90
2603;DHT22;1311;47.966;7.958;2023-01-04T05:15:39;4.20;99.90
2603;DHT22;1311;47.966;7.958;2023-01-04T05:18:09;4.20;99.90
2603;DHT22;1311;47.966;7.958;2023-01-04T05:20:37;4.30;99.90
2603;DHT22;1311;47.966;7.958;2023-01-04T05:23:05;4.40;99.90
2603;DHT22;1311;47.966;7.958;2023-01-04T05:25:31;4.50;99.90
2603;DHT22;1311;47.966;7.958;2023-01-04T05:27:59;4.50;99.90
2603;DHT22;1311;47.966;7.958;2023-01-04T05:30:26;4.60;99.90
2603;DHT22;1311;47.966;7.958;2023-01-04T05:33:11;4.60;99.90
2603;DHT22;1311;47.966;7.958;2023-01-04T05:35:38;4.60;99.90
2603;DHT22;1311;47.966;7.958;2023-01-04T05:38:05;4.60;99.90
2603;DHT22;1311;47.966;7.958;2023-01-04T05:40:32;4.70;99.90
2603;DHT22;1311;47.966;7.958;2023-01-04T05:42:59;4.70;99.90
2603;DHT22;1311;47.966;7.958;2023-01-04T05:45:25;4.80;99.90
2603;DHT22;1311;47.966;7.958;2023-01-04T05:47:53;4.90;99.90
2603;DHT22;1311;47.966;7.958;2023-01-04T05:50:22;4.90;99.90
2603;DHT22;1311;47.966;7.958;2023-01-04T05:52:50;5.00;99.90
2603;DHT22;1311;47.966;7.958;2023-01-04T05:55:17;5.00;99.90
2603;DHT22;1311;47.966;7.958;2023-01-04T05:57:45;5.10;99.90
2603;DHT22;1311;47.966;7.958;2023-01-04T06:00:14;5.10;99.90
2603;DHT22;1311;47.966;7.958;2023-01-04T06:02:42;5.10;99.90
2603;DHT22;1311;47.966;7.958;2023-01-04T06:05:09;5.10;99.90
2603;DHT22;1311;47.966;7.958;2023-01-04T06:07:38;5.10;99.90
2603;DHT22;1311;47.966;7.958;2023-01-04T06:10:07;5.10;99.90
2603;DHT22;1311;47.966;7.958;2023-01-04T06:12:34;5.20;99.90
2603;DHT22;1311;47.966;7.958;2023-01-04T06:15:02;5.30;99.90
2603;DHT22;1311;47.966;7.958;2023-01-04T06:17:29;5.30;99.90
2603;DHT22;1311;47.966;7.958;2023-01-04T06:19:55;5.30;99.90
2603;DHT22;1311;47.966;7.958;2023-01-04T06:22:22;5.40;99.90
2603;DHT22;1311;47.966;7.958;2023-01-04T06:24:52;5.50;99.90
2603;DHT22;1311;47.966;7.958;2023-01-04T06:27:19;5.50;99.90
2603;DHT22;1311;47.966;7.958;2023-01-04T06:29:46;5.60;99.90
2603;DHT22;1311;47.966;7.958;2023-01-04T06:32:13;5.70;99.90
2603;DHT22;1311;47.966;7.958;2023-01-04T06:34:39;5.80;99.90
2603;DHT22;1311;47.966;7.958;2023-01-04T06:37:06;5.80;99.90
2603;DHT22;1311;47.966;7.958;2023-01-04T06:39:34;5.90;99.90
2603;DHT22;1311;47.966;7.958;2023-01-04T06:42:03;5.90;99.90
2603;DHT22;1311;47.966;7.958;2023-01-04T06:44:29;6.00;99.90
2603;DHT22;1311;47.966;7.958;2023-01-04T06:46:56;6.00;99.90
2603;DHT22;1311;47.966;7.958;2023-01-04T06:49:23;6.10;99.90
2603;DHT22;1311;47.966;7.958;2023-01-04T06:51:49;6.20;99.90
2603;DHT22;1311;47.966;7.958;2023-01-04T06:54:16;6.40;99.90
2603;DHT22;1311;47.966;7.958;2023-01-04T06:56:43;6.40;99.90
2603;DHT22;1311;47.966;7.958;2023-01-04T06:59:11;6.50;99.90
2603;DHT22;1311;47.966;7.958;2023-01-04T07:01:38;6.40;99.90
2603;DHT22;1311;47.966;7.958;2023-01-04T07:04:04;6.50;99.90
2603;DHT22;1311;47.966;7.958;2023-01-04T07:06:31;6.50;99.90
2603;DHT22;1311;47.966;7.958;2023-01-04T07:08:58;6.60;99.90
2603;DHT22;1311;47.966;7.958;2023-01-04T07:11:24;6.60;99.90
2603;DHT22;1311;47.966;7.958;2023-01-04T07:13:51;6.70;99.90
2603;DHT22;1311;47.966;7.958;2023-01-04T07:16:19;6.70;99.90
2603;DHT22;1311;47.966;7.958;2023-01-04T07:18:46;6.80;99.90
2603;DHT22;1311;47.966;7.958;2023-01-04T07:21:13;6.80;99.90
2603;DHT22;1311;47.966;7.958;2023-01-04T07:23:40;6.80;99.90
2603;DHT22;1311;47.966;7.958;2023-01-04T07:26:06;6.90;99.90
2603;DHT22;1311;47.966;7.958;2023-01-04T07:28:33;6.90;99.90
2603;DHT22;1311;47.966;7.958;2023-01-04T07:31:17;7.00;99.90
2603;DHT22;1311;47.966;7.958;2023-01-04T07:33:48;7.00;99.90
2603;DHT22;1311;47.966;7.958;2023-01-04T07:36:15;7.00;99.90
2603;DHT22;1311;47.966;7.958;2023-01-04T07:38:41;7.10;99.90
2603;DHT22;1311;47.966;7.958;2023-01-04T07:41:09;7.20;99.90
2603;DHT22;1311;47.966;7.958;2023-01-04T07:43:35;7.30;99.90
2603;DHT22;1311;47.966;7.958;2023-01-04T07:46:02;7.40;99.90
2603;DHT22;1311;47.966;7.958;2023-01-04T07:48:29;7.40;99.90
2603;DHT22;1311;47.966;7.958;2023-01-04T07:50:57;7.50;99.90
2603;DHT22;1311;47.966;7.958;2023-01-04T07:53:24;7.50;99.90
2603;DHT22;1311;47.966;7.958;2023-01-04T07:55:54;7.60;99.90
2603;DHT22;1311;47.966;7.958;2023-01-04T07:58:21;7.60;99.90
2603;DHT22;1311;47.966;7.958;2023-01-04T08:00:48;7.60;99.90
2603;DHT22;1311;47.966;7.958;2023-01-04T08:03:15;7.60;99.90
2603;DHT22;1311;47.966;7.958;2023-01-04T08:05:42;7.60;99.90
2603;DHT22;1311;47.966;7.958;2023-01-04T08:08:10;7.70;99.90
2603;DHT22;1311;47.966;7.958;2023-01-04T08:10:37;7.70;99.90
2603;DHT22;1311;47.966;7.958;2023-01-04T08:13:03;7.70;99.90
2603;DHT22;1311;47.966;7.958;2023-01-04T08:15:30;7.70;99.90
2603;DHT22;1311;47.966;7.958;2023-01-04T08:17:57;7.90;99.90
2603;DHT22;1311;47.966;7.958;2023-01-04T08:20:24;8.00;99.90
2603;DHT22;1311;47.966;7.958;2023-01-04T08:22:50;8.00;99.90
2603;DHT22;1311;47.966;7.958;2023-01-04T08:25:18;8.00;99.90
2603;DHT22;1311;47.966;7.958;2023-01-04T08:27:45;8.20;99.90
2603;DHT22;1311;47.966;7.958;2023-01-04T08:30:12;8.20;99.90
2603;DHT22;1311;47.966;7.958;2023-01-04T08:32:39;8.10;99.90
2603;DHT22;1311;47.966;7.958;2023-01-04T08:35:06;8.10;99.90
2603;DHT22;1311;47.966;7.958;2023-01-04T08:37:33;8.10;99.90
2603;DHT22;1311;47.966;7.958;2023-01-04T08:40:00;8.10;99.90
2603;DHT22;1311;47.966;7.958;2023-01-04T08:42:28;8.10;99.90
2603;DHT22;1311;47.966;7.958;2023-01-04T08:44:54;8.00;99.90
2603;DHT22;1311;47.966;7.958;2023-01-04T08:47:22;8.00;99.90
2603;DHT22;1311;47.966;7.958;2023-01-04T08:49:49;8.00;99.90
2603;DHT22;1311;47.966;7.958;2023-01-04T08:52:16;8.00;99.90
2603;DHT22;1311;47.966;7.958;2023-01-04T08:54:42;8.00;99.90
2603;DHT22;1311;47.966;7.958;2023-01-04T08:57:09;8.10;99.90
2603;DHT22;1311;47.966;7.958;2023-01-04T08:59:37;8.10;99.90
2603;DHT22;1311;47.966;7.958;2023-01-04T09:02:15;8.10;99.90
2603;DHT22;1311;47.966;7.958;2023-01-04T09:04:44;8.00;99.90
2603;DHT22;1311;47.966;7.958;2023-01-04T09:07:11;8.00;99.90
2603;DHT22;1311;47.966;7.958;2023-01-04T09:09:37;8.00;99.90
2603;DHT22;1311;47.966;7.958;2023-01-04T09:12:04;8.00;99.90
2603;DHT22;1311;47.966;7.958;2023-01-04T09:14:31;8.10;99.90
2603;DHT22;1311;47.966;7.958;2023-01-04T09:16:59;8.10;99.90
2603;DHT22;1311;47.966;7.958;2023-01-04T09:19:26;8.10;99.90
2603;DHT22;1311;47.966;7.958;2023-01-04T09:21:53;8.10;99.90
2603;DHT22;1311;47.966;7.958;2023-01-04T09:24:20;8.10;99.90
2603;DHT22;1311;47.966;7.958;2023-01-04T09:26:46;8.10;99.90
2603;DHT22;1311;47.966;7.958;2023-01-04T09:29:13;8.10;99.90
2603;DHT22;1311;47.966;7.958;2023-01-04T09:31:40;8.00;99.90
2603;DHT22;1311;47.966;7.958;2023-01-04T09:34:09;8.10;99.90
2603;DHT22;1311;47.966;7.958;2023-01-04T09:36:37;8.20;99.90
2603;DHT22;1311;47.966;7.958;2023-01-04T09:39:04;8.10;99.90
2603;DHT22;1311;47.966;7.958;2023-01-04T09:41:34;8.20;99.90
2603;DHT22;1311;47.966;7.958;2023-01-04T09:44:06;8.30;99.90
2603;DHT22;1311;47.966;7.958;2023-01-04T09:46:46;8.30;99.90
2603;DHT22;1311;47.966;7.958;2023-01-04T09:49:22;8.40;99.90
2603;DHT22;1311;47.966;7.958;2023-01-04T09:51:54;8.40;99.90
2603;DHT22;1311;47.966;7.958;2023-01-04T09:54:27;8.60;99.90
2603;DHT22;1311;47.966;7.958;2023-01-04T09:56:57;8.70;99.90
2603;DHT22;1311;47.966;7.958;2023-01-04T09:59:28;8.60;99.90
2603;DHT22;1311;47.966;7.958;2023-01-04T10:01:59;8.60;99.90
2603;DHT22;1311;47.966;7.958;2023-01-04T10:04:39;8.60;99.90
2603;DHT22;1311;47.966;7.958;2023-01-04T10:07:13;8.70;99.90
2603;DHT22;1311;47.966;7.958;2023-01-04T10:09:42;8.80;99.90
2603;DHT22;1311;47.966;7.958;2023-01-04T10:12:17;8.90;99.90
2603;DHT22;1311;47.966;7.958;2023-01-04T10:14:57;8.90;99.90
2603;DHT22;1311;47.966;7.958;2023-01-04T10:17:35;8.90;99.90
2603;DHT22;1311;47.966;7.958;2023-01-04T10:20:23;9.00;99.90
2603;DHT22;1311;47.966;7.958;2023-01-04T10:22:57;9.20;99.90
2603;DHT22;1311;47.966;7.958;2023-01-04T10:25:33;9.10;99.90
2603;DHT22;1311;47.966;7.958;2023-01-04T10:28:15;9.10;99.90
2603;DHT22;1311;47.966;7.958;2023-01-04T10:30:52;9.10;99.90
2603;DHT22;1311;47.966;7.958;2023-01-04T10:33:23;9.10;99.90
2603;DHT22;1311;47.966;7.958;2023-01-04T10:35:52;9.10;99.90
2603;DHT22;1311;47.966;7.958;2023-01-04T10:38:23;9.20;99.90
2603;DHT22;1311;47.966;7.958;2023-01-04T10:40:51;9.30;99.90
2603;DHT22;1311;47.966;7.958;2023-01-04T10:43:30;9.30;99.90
2603;DHT22;1311;47.966;7.958;2023-01-04T10:46:05;9.30;99.90
2603;DHT22;1311;47.966;7.958;2023-01-04T10:48:39;9.50;99.90
2603;DHT22;1311;47.966;7.958;2023-01-04T10:51:11;9.60;99.90
2603;DHT22;1311;47.966;7.958;2023-01-04T10:53:44;9.60;99.90
2603;DHT22;1311;47.966;7.958;2023-01-04T10:56:17;9.80;99.90
2603;DHT22;1311;47.966;7.958;2023-01-04T10:58:50;10.00;99.90
2603;DHT22;1311;47.966;7.958;2023-01-04T11:01:20;10.00;99.90
2603;DHT22;1311;47.966;7.958;2023-01-04T11:03:50;9.90;99.90
2603;DHT22;1311;47.966;7.958;2023-01-04T11:06:24;10.10;99.90
2603;DHT22;1311;47.966;7.958;2023-01-04T11:08:55;10.00;99.90
2603;DHT22;1311;47.966;7.958;2023-01-04T11:11:25;10.10;99.90
2603;DHT22;1311;47.966;7.958;2023-01-04T11:13:53;10.10;99.90
2603;DHT22;1311;47.966;7.958;2023-01-04T11:16:20;10.20;99.90
2603;DHT22;1311;47.966;7.958;2023-01-04T11:18:48;10.30;99.90
2603;DHT22;1311;47.966;7.958;2023-01-04T11:21:19;10.50;99.90
2603;DHT22;1311;47.966;7.958;2023-01-04T11:23:48;10.70;99.90
2603;DHT22;1311;47.966;7.958;2023-01-04T11:26:20;10.80;99.90
2603;DHT22;1311;47.966;7.958;2023-01-04T11:28:50;10.80;99.90
2603;DHT22;1311;47.966;7.958;2023-01-04T11:31:23;10.80;99.90
2603;DHT22;1311;47.966;7.958;2023-01-04T11:33:54;10.90;99.90
2603;DHT22;1311;47.966;7.958;2023-01-04T11:36:33;10.90;99.90
2603;DHT22;1311;47.966;7.958;2023-01-04T11:39:03;11.00;99.90
2603;DHT22;1311;47.966;7.958;2023-01-04T11:41:30;10.90;99.90
2603;DHT22;1311;47.966;7.958;2023-01-04T11:43:57;11.00;99.90
2603;DHT22;1311;47.966;7.958;2023-01-04T11:46:26;11.00;99.90
2603;DHT22;1311;47.966;7.958;2023-01-04T11:48:54;10.90;99.90
2603;DHT22;1311;47.966;7.958;2023-01-04T11:51:34;10.90;99.90
2603;DHT22;1311;47.966;7.958;2023-01-04T11:54:05;10.90;99.90
2603;DHT22;1311;47.966;7.958;2023-01-04T11:56:33;11.00;99.90
2603;DHT22;1311;47.966;7.958;2023-01-04T11:59:17;11.00;99.90
2603;DHT22;1311;47.966;7.958;2023-01-04T12:01:47;10.90;99.90
2603;DHT22;1311;47.966;7.958;2023-01-04T12:04:19;10.90;99.90
2603;DHT22;1311;47.966;7.958;2023-01-04T12:06:49;11.10;99.90
2603;DHT22;1311;47.966;7.958;2023-01-04T12:09:19;11.10;99.90
2603;DHT22;1311;47.966;7.958;2023-01-04T12:11:48;11.00;99.90
2603;DHT22;1311;47.966;7.958;2023-01-04T12:14:21;11.10;99.90
2603;DHT22;1311;47.966;7.958;2023-01-04T12:16:55;11.10;99.90
2603;DHT22;1311;47.966;7.958;2023-01-04T12:19:23;11.10;99.90
2603;DHT22;1311;47.966;7.958;2023-01-04T12:21:52;11.10;99.90
2603;DHT22;1311;47.966;7.958;2023-01-04T12:24:23;11.10;99.90
2603;DHT22;1311;47.966;7.958;2023-01-04T12:26:50;11.00;99.90
2603;DHT22;1311;47.966;7.958;2023-01-04T12:29:41;11.10;99.90
2603;DHT22;1311;47.966;7.958;2023-01-04T12:32:40;11.10;99.90
2603;DHT22;1311;47.966;7.958;2023-01-04T12:39:00;11.10;99.90
2603;DHT22;1311;47.966;7.958;2023-01-04T12:45:17;11.20;99.90
2603;DHT22;1311;47.966;7.958;2023-01-04T12:47:47;11.20;99.90
2603;DHT22;1311;47.966;7.958;2023-01-04T12:50:31;11.20;99.90
2603;DHT22;1311;47.966;7.958;2023-01-04T12:53:01;11.10;99.90
2603;DHT22;1311;47.966;7.958;2023-01-04T12:58:40;11.20;99.90
2603;DHT22;1311;47.966;7.958;2023-01-04T13:01:21;11.20;99.90
2603;DHT22;1311;47.966;7.958;2023-01-04T13:03:54;11.20;99.90
2603;DHT22;1311;47.966;7.958;2023-01-04T13:06:23;11.30;99.90
2603;DHT22;1311;47.966;7.958;2023-01-04T13:08:52;11.20;99.90
2603;DHT22;1311;47.966;7.958;2023-01-04T13:14:19;11.20;99.90
2603;DHT22;1311;47.966;7.958;2023-01-04T13:17:07;11.20;99.90
2603;DHT22;1311;47.966;7.958;2023-01-04T13:19:38;11.20;99.90
2603;DHT22;1311;47.966;7.958;2023-01-04T13:22:11;11.20;99.90
2603;DHT22;1311;47.966;7.958;2023-01-04T13:24:43;11.20;99.90
2603;DHT22;1311;47.966;7.958;2023-01-04T13:27:14;11.10;99.90
2603;DHT22;1311;47.966;7.958;2023-01-04T13:29:42;11.10;99.90
2603;DHT22;1311;47.966;7.958;2023-01-04T13:32:13;11.20;99.90
2603;DHT22;1311;47.966;7.958;2023-01-04T13:34:46;11.20;99.90
2603;DHT22;1311;47.966;7.958;2023-01-04T13:37:27;11.20;99.90
2603;DHT22;1311;47.966;7.958;2023-01-04T13:40:20;11.10;99.90
2603;DHT22;1311;47.966;7.958;2023-01-04T13:42:50;11.10;99.90
2603;DHT22;1311;47.966;7.958;2023-01-04T13:45:42;11.10;99.90
2603;DHT22;1311;47.966;7.958;2023-01-04T13:48:14;11.20;99.90
2603;DHT22;1311;47.966;7.958;2023-01-04T13:50:44;11.30;99.90
2603;DHT22;1311;47.966;7.958;2023-01-04T13:53:24;11.20;99.90
2603;DHT22;1311;47.966;7.958;2023-01-04T13:55:53;11.20;99.90
2603;DHT22;1311;47.966;7.958;2023-01-04T13:58:21;11.20;99.90
2603;DHT22;1311;47.966;7.958;2023-01-04T14:00:51;11.20;99.90
2603;DHT22;1311;47.966;7.958;2023-01-04T14:03:30;11.20;99.90
2603;DHT22;1311;47.966;7.958;2023-01-04T14:06:14;11.10;99.90
2603;DHT22;1311;47.966;7.958;2023-01-04T14:08:45;11.10;99.90
2603;DHT22;1311;47.966;7.958;2023-01-04T14:11:16;11.10;99.90
2603;DHT22;1311;47.966;7.958;2023-01-04T14:14:18;11.10;99.90
2603;DHT22;1311;47.966;7.958;2023-01-04T14:16:46;11.10;99.90
2603;DHT22;1311;47.966;7.958;2023-01-04T14:19:41;11.10;99.90
2603;DHT22;1311;47.966;7.958;2023-01-04T14:22:31;11.20;99.90
2603;DHT22;1311;47.966;7.958;2023-01-04T14:25:01;11.10;99.90
2603;DHT22;1311;47.966;7.958;2023-01-04T14:27:48;11.20;99.90
2603;DHT22;1311;47.966;7.958;2023-01-04T14:30:25;11.30;99.90
2603;DHT22;1311;47.966;7.958;2023-01-04T14:32:54;11.30;99.90
2603;DHT22;1311;47.966;7.958;2023-01-04T14:35:21;11.20;99.90
2603;DHT22;1311;47.966;7.958;2023-01-04T14:37:49;11.20;99.90
2603;DHT22;1311;47.966;7.958;2023-01-04T14:40:22;11.30;99.90
2603;DHT22;1311;47.966;7.958;2023-01-04T14:42:51;11.20;99.90
2603;DHT22;1311;47.966;7.958;2023-01-04T14:45:18;11.20;99.90
2603;DHT22;1311;47.966;7.958;2023-01-04T14:47:45;11.30;99.90
2603;DHT22;1311;47.966;7.958;2023-01-04T14:50:12;11.20;99.90
2603;DHT22;1311;47.966;7.958;2023-01-04T14:52:39;11.20;99.90
2603;DHT22;1311;47.966;7.958;2023-01-04T14:55:07;11.20;99.90
2603;DHT22;1311;47.966;7.958;2023-01-04T14:57:33;11.20;99.90
2603;DHT22;1311;47.966;7.958;2023-01-04T15:00:05;11.30;99.90
2603;DHT22;1311;47.966;7.958;2023-01-04T15:02:32;11.20;99.90
2603;DHT22;1311;47.966;7.958;2023-01-04T15:04:58;11.10;99.90
2603;DHT22;1311;47.966;7.958;2023-01-04T15:07:32;11.10;99.90
2603;DHT22;1311;47.966;7.958;2023-01-04T15:09:59;11.10;99.90
2603;DHT22;1311;47.966;7.958;2023-01-04T15:12:26;11.10;99.90
2603;DHT22;1311;47.966;7.958;2023-01-04T15:14:53;11.10;99.90
2603;DHT22;1311;47.966;7.958;2023-01-04T15:17:21;11.10;99.90
2603;DHT22;1311;47.966;7.958;2023-01-04T15:19:48;11.00;99.90
2603;DHT22;1311;47.966;7.958;2023-01-04T15:22:14;11.00;99.90
2603;DHT22;1311;47.966;7.958;2023-01-04T15:24:41;10.90;99.90
2603;DHT22;1311;47.966;7.958;2023-01-04T15:27:08;10.90;99.90
2603;DHT22;1311;47.966;7.958;2023-01-04T15:29:35;10.90;99.90
2603;DHT22;1311;47.966;7.958;2023-01-04T15:32:01;10.90;99.90
2603;DHT22;1311;47.966;7.958;2023-01-04T15:34:29;10.80;99.90
2603;DHT22;1311;47.966;7.958;2023-01-04T15:36:56;10.80;99.90
2603;DHT22;1311;47.966;7.958;2023-01-04T15:39:23;10.80;99.90
2603;DHT22;1311;47.966;7.958;2023-01-04T15:41:50;10.80;99.90
2603;DHT22;1311;47.966;7.958;2023-01-04T15:44:37;10.80;99.90
2603;DHT22;1311;47.966;7.958;2023-01-04T15:47:04;10.70;99.90
2603;DHT22;1311;47.966;7.958;2023-01-04T15:49:32;10.80;99.90
2603;DHT22;1311;47.966;7.958;2023-01-04T15:51:58;10.80;99.90
2603;DHT22;1311;47.966;7.958;2023-01-04T15:54:25;10.80;99.90
2603;DHT22;1311;47.966;7.958;2023-01-04T15:56:52;10.80;99.90
2603;DHT22;1311;47.966;7.958;2023-01-04T15:59:19;10.80;99.90
2603;DHT22;1311;47.966;7.958;2023-01-04T16:01:46;10.80;99.90
2603;DHT22;1311;47.966;7.958;2023-01-04T16:04:13;10.70;99.90
2603;DHT22;1311;47.966;7.958;2023-01-04T16:06:41;10.60;99.90
2603;DHT22;1311;47.966;7.958;2023-01-04T16:09:08;10.60;99.90
2603;DHT22;1311;47.966;7.958;2023-01-04T16:11:35;10.50;99.90
2603;DHT22;1311;47.966;7.958;2023-01-04T16:14:21;10.50;99.90
2603;DHT22;1311;47.966;7.958;2023-01-04T16:16:48;10.40;99.90
2603;DHT22;1311;47.966;7.958;2023-01-04T16:19:15;10.30;99.90
2603;DHT22;1311;47.966;7.958;2023-01-04T16:21:43;10.30;99.90
2603;DHT22;1311;47.966;7.958;2023-01-04T16:24:10;10.40;99.90
2603;DHT22;1311;47.966;7.958;2023-01-04T16:26:37;10.50;99.90
2603;DHT22;1311;47.966;7.958;2023-01-04T16:29:04;10.50;99.90
2603;DHT22;1311;47.966;7.958;2023-01-04T16:31:32;10.50;99.90
2603;DHT22;1311;47.966;7.958;2023-01-04T16:33:59;10.50;99.90
2603;DHT22;1311;47.966;7.958;2023-01-04T16:36:26;10.50;99.90
2603;DHT22;1311;47.966;7.958;2023-01-04T16:38:54;10.60;99.90
2603;DHT22;1311;47.966;7.958;2023-01-04T16:41:21;10.60;99.90
2603;DHT22;1311;47.966;7.958;2023-01-04T16:43:51;10.60;99.90
2603;DHT22;1311;47.966;7.958;2023-01-04T16:46:21;10.60;99.90
2603;DHT22;1311;47.966;7.958;2023-01-04T16:48:50;10.60;99.90
2603;DHT22;1311;47.966;7.958;2023-01-04T16:51:17;10.60;99.90
2603;DHT22;1311;47.966;7.958;2023-01-04T16:53:44;10.60;99.90
2603;DHT22;1311;47.966;7.958;2023-01-04T16:56:13;10.60;99.90